sensor_id;sensor_type;location;lat;lon;timestamp;P1;durP1;ratioP1;P2;durP2;ratioP2
35048;SDS011;21236;48.740;-3.446;2022-10-17T00:01:47;22.73;;;3.63;;
35048;SDS011;21236;48.740;-3.446;2022-10-17T00:04:13;22.52;;;2.75;;
35048;SDS011;21236;48.740;-3.446;2022-10-17T00:06:39;15.68;;;3.63;;
35048;SDS011;21236;48.740;-3.446;2022-10-17T00:09:06;15.20;;;2.67;;
35048;SDS011;21236;48.740;-3.446;2022-10-17T00:11:33;25.10;;;3.50;;
35048;SDS011;21236;48.740;-3.446;2022-10-17T00:14:00;14.13;;;3.95;;
35048;SDS011;21236;48.740;-3.446;2022-10-17T00:16:30;17.15;;;3.08;;
35048;SDS011;21236;48.740;-3.446;2022-10-17T00:18:58;16.83;;;3.28;;
35048;SDS011;21236;48.740;-3.446;2022-10-17T00:21:24;18.25;;;3.50;;
35048;SDS011;21236;48.740;-3.446;2022-10-17T00:23:51;18.90;;;3.33;;
35048;SDS011;21236;48.740;-3.446;2022-10-17T00:26:17;22.60;;;3.65;;
35048;SDS011;21236;48.740;-3.446;2022-10-17T00:28:48;15.65;;;2.78;;
35048;SDS011;21236;48.740;-3.446;2022-10-17T00:31:15;18.15;;;3.58;;
35048;SDS011;21236;48.740;-3.446;2022-10-17T00:33:42;19.08;;;3.92;;
35048;SDS011;21236;48.740;-3.446;2022-10-17T00:38:38;15.95;;;2.47;;
35048;SDS011;21236;48.740;-3.446;2022-10-17T00:41:04;14.60;;;2.83;;
35048;SDS011;21236;48.740;-3.446;2022-10-17T00:46:16;16.13;;;3.22;;
35048;SDS011;21236;48.740;-3.446;2022-10-17T00:48:42;24.23;;;3.03;;
35048;SDS011;21236;48.740;-3.446;2022-10-17T00:51:09;21.33;;;4.07;;
35048;SDS011;21236;48.740;-3.446;2022-10-17T00:53:35;19.00;;;3.13;;
35048;SDS011;21236;48.740;-3.446;2022-10-17T00:56:02;16.30;;;3.17;;
35048;SDS011;21236;48.740;-3.446;2022-10-17T00:58:28;20.10;;;3.05;;
35048;SDS011;21236;48.740;-3.446;2022-10-17T01:00:54;18.25;;;3.55;;
35048;SDS011;21236;48.740;-3.446;2022-10-17T01:03:20;21.92;;;4.00;;
35048;SDS011;21236;48.740;-3.446;2022-10-17T01:05:46;16.42;;;3.10;;
35048;SDS011;21236;48.740;-3.446;2022-10-17T01:08:12;20.85;;;2.95;;
35048;SDS011;21236;48.740;-3.446;2022-10-17T01:18:39;17.73;;;2.70;;
35048;SDS011;21236;48.740;-3.446;2022-10-17T01:21:26;17.00;;;3.30;;
35048;SDS011;21236;48.740;-3.446;2022-10-17T01:31:41;15.48;;;2.83;;
35048;SDS011;21236;48.740;-3.446;2022-10-17T01:41:56;16.42;;;3.20;;
35048;SDS011;21236;48.740;-3.446;2022-10-17T01:47:09;16.83;;;2.80;;
35048;SDS011;21236;48.740;-3.446;2022-10-17T01:49:36;23.10;;;3.08;;
35048;SDS011;21236;48.740;-3.446;2022-10-17T01:52:05;14.20;;;3.20;;
35048;SDS011;21236;48.740;-3.446;2022-10-17T01:54:36;19.38;;;3.63;;
35048;SDS011;21236;48.740;-3.446;2022-10-17T01:57:04;15.68;;;3.15;;
35048;SDS011;21236;48.740;-3.446;2022-10-17T01:59:37;17.25;;;2.40;;
35048;SDS011;21236;48.740;-3.446;2022-10-17T02:02:04;9.20;;;2.00;;
35048;SDS011;21236;48.740;-3.446;2022-10-17T02:04:33;11.15;;;1.60;;
35048;SDS011;21236;48.740;-3.446;2022-10-17T02:07:06;14.43;;;2.60;;
35048;SDS011;21236;48.740;-3.446;2022-10-17T02:09:32;13.68;;;2.63;;
35048;SDS011;21236;48.740;-3.446;2022-10-17T02:14:51;5.18;;;1.58;;
35048;SDS011;21236;48.740;-3.446;2022-10-17T02:17:16;11.93;;;1.92;;
35048;SDS011;21236;48.740;-3.446;2022-10-17T02:30:11;7.20;;;1.20;;
35048;SDS011;21236;48.740;-3.446;2022-10-17T02:32:46;8.38;;;1.70;;
35048;SDS011;21236;48.740;-3.446;2022-10-17T02:35:14;5.47;;;1.17;;
35048;SDS011;21236;48.740;-3.446;2022-10-17T02:37:41;12.98;;;1.50;;
35048;SDS011;21236;48.740;-3.446;2022-10-17T02:40:09;4.72;;;1.10;;
35048;SDS011;21236;48.740;-3.446;2022-10-17T02:42:37;11.05;;;1.65;;
35048;SDS011;21236;48.740;-3.446;2022-10-17T02:45:04;4.70;;;1.13;;
35048;SDS011;21236;48.740;-3.446;2022-10-17T02:47:35;6.55;;;1.20;;
35048;SDS011;21236;48.740;-3.446;2022-10-17T02:50:04;10.30;;;1.40;;
35048;SDS011;21236;48.740;-3.446;2022-10-17T02:52:34;8.43;;;1.67;;
35048;SDS011;21236;48.740;-3.446;2022-10-17T02:55:38;7.70;;;1.23;;
35048;SDS011;21236;48.740;-3.446;2022-10-17T02:57:56;8.38;;;1.30;;
35048;SDS011;21236;48.740;-3.446;2022-10-17T03:00:24;7.22;;;1.15;;
35048;SDS011;21236;48.740;-3.446;2022-10-17T03:02:52;5.05;;;1.38;;
35048;SDS011;21236;48.740;-3.446;2022-10-17T03:05:19;7.20;;;1.00;;
35048;SDS011;21236;48.740;-3.446;2022-10-17T03:07:46;7.78;;;1.00;;
35048;SDS011;21236;48.740;-3.446;2022-10-17T03:10:12;8.20;;;1.05;;
35048;SDS011;21236;48.740;-3.446;2022-10-17T03:12:38;2.70;;;0.85;;
35048;SDS011;21236;48.740;-3.446;2022-10-17T03:15:05;6.75;;;0.80;;
35048;SDS011;21236;48.740;-3.446;2022-10-17T03:17:32;5.43;;;0.88;;
35048;SDS011;21236;48.740;-3.446;2022-10-17T03:19:58;7.03;;;1.20;;
35048;SDS011;21236;48.740;-3.446;2022-10-17T03:22:24;4.90;;;1.20;;
35048;SDS011;21236;48.740;-3.446;2022-10-17T03:24:50;4.93;;;1.05;;
35048;SDS011;21236;48.740;-3.446;2022-10-17T03:27:17;5.00;;;1.70;;
35048;SDS011;21236;48.740;-3.446;2022-10-17T03:29:43;7.78;;;1.02;;
35048;SDS011;21236;48.740;-3.446;2022-10-17T03:32:11;7.97;;;1.15;;
35048;SDS011;21236;48.740;-3.446;2022-10-17T03:34:38;4.20;;;1.33;;
35048;SDS011;21236;48.740;-3.446;2022-10-17T03:37:04;9.23;;;1.17;;
35048;SDS011;21236;48.740;-3.446;2022-10-17T03:39:32;5.85;;;1.00;;
35048;SDS011;21236;48.740;-3.446;2022-10-17T03:41:58;8.57;;;1.45;;
35048;SDS011;21236;48.740;-3.446;2022-10-17T03:44:24;3.42;;;0.85;;
35048;SDS011;21236;48.740;-3.446;2022-10-17T03:46:50;8.20;;;1.27;;
35048;SDS011;21236;48.740;-3.446;2022-10-17T03:49:16;5.97;;;1.30;;
35048;SDS011;21236;48.740;-3.446;2022-10-17T03:51:43;5.03;;;1.13;;
35048;SDS011;21236;48.740;-3.446;2022-10-17T03:54:12;5.57;;;1.85;;
35048;SDS011;21236;48.740;-3.446;2022-10-17T03:56:38;5.75;;;1.20;;
35048;SDS011;21236;48.740;-3.446;2022-10-17T03:59:13;5.07;;;1.70;;
35048;SDS011;21236;48.740;-3.446;2022-10-17T04:01:41;4.07;;;1.20;;
35048;SDS011;21236;48.740;-3.446;2022-10-17T04:04:08;8.23;;;1.17;;
35048;SDS011;21236;48.740;-3.446;2022-10-17T04:06:35;10.90;;;1.42;;
35048;SDS011;21236;48.740;-3.446;2022-10-17T04:09:03;5.78;;;1.15;;
35048;SDS011;21236;48.740;-3.446;2022-10-17T04:11:37;6.38;;;1.23;;
35048;SDS011;21236;48.740;-3.446;2022-10-17T04:14:03;7.47;;;1.35;;
35048;SDS011;21236;48.740;-3.446;2022-10-17T04:16:30;5.13;;;1.25;;
35048;SDS011;21236;48.740;-3.446;2022-10-17T04:19:00;5.00;;;0.75;;
35048;SDS011;21236;48.740;-3.446;2022-10-17T04:21:30;7.68;;;1.40;;
35048;SDS011;21236;48.740;-3.446;2022-10-17T04:24:02;6.57;;;1.27;;
35048;SDS011;21236;48.740;-3.446;2022-10-17T04:26:42;7.43;;;1.45;;
35048;SDS011;21236;48.740;-3.446;2022-10-17T04:29:08;9.95;;;1.77;;
35048;SDS011;21236;48.740;-3.446;2022-10-17T04:31:34;5.78;;;0.90;;
35048;SDS011;21236;48.740;-3.446;2022-10-17T04:34:12;11.93;;;1.33;;
35048;SDS011;21236;48.740;-3.446;2022-10-17T04:36:38;6.32;;;1.48;;
35048;SDS011;21236;48.740;-3.446;2022-10-17T04:39:05;6.75;;;1.30;;
35048;SDS011;21236;48.740;-3.446;2022-10-17T04:41:34;15.65;;;1.50;;
35048;SDS011;21236;48.740;-3.446;2022-10-17T04:44:00;5.28;;;1.45;;
35048;SDS011;21236;48.740;-3.446;2022-10-17T04:46:29;6.28;;;0.90;;
35048;SDS011;21236;48.740;-3.446;2022-10-17T04:48:55;7.18;;;1.20;;
35048;SDS011;21236;48.740;-3.446;2022-10-17T04:51:22;9.27;;;1.10;;
35048;SDS011;21236;48.740;-3.446;2022-10-17T04:54:08;9.95;;;1.00;;
35048;SDS011;21236;48.740;-3.446;2022-10-17T04:56:37;5.60;;;1.23;;
35048;SDS011;21236;48.740;-3.446;2022-10-17T04:59:03;2.80;;;1.10;;
35048;SDS011;21236;48.740;-3.446;2022-10-17T05:01:30;10.02;;;1.70;;
35048;SDS011;21236;48.740;-3.446;2022-10-17T05:03:56;3.53;;;1.00;;
35048;SDS011;21236;48.740;-3.446;2022-10-17T05:06:23;7.28;;;1.10;;
35048;SDS011;21236;48.740;-3.446;2022-10-17T05:09:12;6.30;;;1.08;;
35048;SDS011;21236;48.740;-3.446;2022-10-17T05:11:39;9.38;;;1.00;;
35048;SDS011;21236;48.740;-3.446;2022-10-17T05:14:08;8.88;;;1.20;;
35048;SDS011;21236;48.740;-3.446;2022-10-17T05:16:34;7.63;;;1.38;;
35048;SDS011;21236;48.740;-3.446;2022-10-17T05:19:00;6.40;;;1.15;;
35048;SDS011;21236;48.740;-3.446;2022-10-17T05:21:32;5.80;;;1.13;;
35048;SDS011;21236;48.740;-3.446;2022-10-17T05:23:58;4.93;;;1.20;;
35048;SDS011;21236;48.740;-3.446;2022-10-17T05:26:25;8.10;;;1.42;;
35048;SDS011;21236;48.740;-3.446;2022-10-17T05:28:51;12.73;;;1.67;;
35048;SDS011;21236;48.740;-3.446;2022-10-17T05:31:21;7.43;;;1.33;;
35048;SDS011;21236;48.740;-3.446;2022-10-17T05:33:47;5.68;;;1.05;;
35048;SDS011;21236;48.740;-3.446;2022-10-17T05:36:13;7.68;;;1.40;;
35048;SDS011;21236;48.740;-3.446;2022-10-17T05:38:40;12.20;;;1.50;;
35048;SDS011;21236;48.740;-3.446;2022-10-17T05:41:08;7.97;;;1.25;;
35048;SDS011;21236;48.740;-3.446;2022-10-17T05:43:34;13.32;;;2.25;;
35048;SDS011;21236;48.740;-3.446;2022-10-17T05:46:04;6.20;;;1.80;;
35048;SDS011;21236;48.740;-3.446;2022-10-17T05:48:31;18.65;;;5.03;;
35048;SDS011;21236;48.740;-3.446;2022-10-17T05:50:59;10.07;;;2.22;;
35048;SDS011;21236;48.740;-3.446;2022-10-17T05:53:28;9.25;;;1.92;;
35048;SDS011;21236;48.740;-3.446;2022-10-17T05:55:59;11.05;;;1.67;;
35048;SDS011;21236;48.740;-3.446;2022-10-17T05:58:25;10.77;;;2.70;;
35048;SDS011;21236;48.740;-3.446;2022-10-17T06:00:58;14.90;;;2.08;;
35048;SDS011;21236;48.740;-3.446;2022-10-17T06:03:25;9.32;;;1.65;;
35048;SDS011;21236;48.740;-3.446;2022-10-17T06:05:52;7.68;;;1.70;;
35048;SDS011;21236;48.740;-3.446;2022-10-17T06:08:19;14.05;;;1.50;;
35048;SDS011;21236;48.740;-3.446;2022-10-17T06:10:48;6.47;;;1.38;;
35048;SDS011;21236;48.740;-3.446;2022-10-17T06:13:15;6.32;;;1.40;;
35048;SDS011;21236;48.740;-3.446;2022-10-17T06:15:43;18.92;;;1.73;;
35048;SDS011;21236;48.740;-3.446;2022-10-17T06:18:10;8.43;;;1.50;;
35048;SDS011;21236;48.740;-3.446;2022-10-17T06:20:36;7.60;;;1.77;;
35048;SDS011;21236;48.740;-3.446;2022-10-17T06:23:04;3.13;;;1.48;;
35048;SDS011;21236;48.740;-3.446;2022-10-17T06:25:57;6.35;;;1.40;;
35048;SDS011;21236;48.740;-3.446;2022-10-17T06:28:24;5.28;;;1.50;;
35048;SDS011;21236;48.740;-3.446;2022-10-17T06:30:50;9.82;;;2.03;;
35048;SDS011;21236;48.740;-3.446;2022-10-17T06:33:17;6.28;;;1.80;;
35048;SDS011;21236;48.740;-3.446;2022-10-17T06:35:49;8.43;;;1.85;;
35048;SDS011;21236;48.740;-3.446;2022-10-17T06:38:16;11.02;;;2.42;;
35048;SDS011;21236;48.740;-3.446;2022-10-17T06:40:42;14.60;;;2.45;;
35048;SDS011;21236;48.740;-3.446;2022-10-17T06:43:08;5.82;;;1.60;;
35048;SDS011;21236;48.740;-3.446;2022-10-17T06:45:54;14.02;;;2.20;;
35048;SDS011;21236;48.740;-3.446;2022-10-17T06:48:35;11.70;;;2.03;;
35048;SDS011;21236;48.740;-3.446;2022-10-17T06:51:26;8.15;;;2.00;;
35048;SDS011;21236;48.740;-3.446;2022-10-17T06:53:55;5.75;;;1.98;;
35048;SDS011;21236;48.740;-3.446;2022-10-17T06:56:40;6.75;;;2.10;;
35048;SDS011;21236;48.740;-3.446;2022-10-17T06:59:17;9.25;;;2.40;;
35048;SDS011;21236;48.740;-3.446;2022-10-17T07:01:51;7.97;;;2.38;;
35048;SDS011;21236;48.740;-3.446;2022-10-17T07:04:17;9.40;;;2.53;;
35048;SDS011;21236;48.740;-3.446;2022-10-17T07:06:43;9.27;;;2.20;;
35048;SDS011;21236;48.740;-3.446;2022-10-17T07:09:14;9.38;;;2.78;;
35048;SDS011;21236;48.740;-3.446;2022-10-17T07:11:42;13.07;;;2.00;;
35048;SDS011;21236;48.740;-3.446;2022-10-17T07:14:08;8.75;;;2.13;;
35048;SDS011;21236;48.740;-3.446;2022-10-17T07:16:34;7.43;;;2.20;;
35048;SDS011;21236;48.740;-3.446;2022-10-17T07:19:09;13.55;;;1.77;;
35048;SDS011;21236;48.740;-3.446;2022-10-17T07:21:37;6.40;;;2.13;;
35048;SDS011;21236;48.740;-3.446;2022-10-17T07:24:04;9.50;;;2.13;;
35048;SDS011;21236;48.740;-3.446;2022-10-17T07:26:31;9.00;;;2.40;;
35048;SDS011;21236;48.740;-3.446;2022-10-17T07:28:58;13.65;;;2.10;;
35048;SDS011;21236;48.740;-3.446;2022-10-17T07:31:33;7.78;;;1.70;;
35048;SDS011;21236;48.740;-3.446;2022-10-17T07:33:59;5.93;;;1.83;;
35048;SDS011;21236;48.740;-3.446;2022-10-17T07:36:26;12.82;;;2.10;;
35048;SDS011;21236;48.740;-3.446;2022-10-17T07:38:53;7.97;;;1.73;;
35048;SDS011;21236;48.740;-3.446;2022-10-17T07:41:20;12.30;;;1.70;;
35048;SDS011;21236;48.740;-3.446;2022-10-17T07:43:47;13.57;;;2.40;;
35048;SDS011;21236;48.740;-3.446;2022-10-17T07:46:16;14.40;;;2.65;;
35048;SDS011;21236;48.740;-3.446;2022-10-17T07:48:43;15.95;;;2.15;;
35048;SDS011;21236;48.740;-3.446;2022-10-17T07:51:10;15.30;;;2.97;;
35048;SDS011;21236;48.740;-3.446;2022-10-17T07:53:36;13.85;;;2.75;;
35048;SDS011;21236;48.740;-3.446;2022-10-17T07:56:04;16.52;;;2.63;;
35048;SDS011;21236;48.740;-3.446;2022-10-17T07:58:30;14.85;;;2.65;;
35048;SDS011;21236;48.740;-3.446;2022-10-17T08:01:03;12.00;;;2.22;;
35048;SDS011;21236;48.740;-3.446;2022-10-17T08:03:30;17.15;;;2.63;;
35048;SDS011;21236;48.740;-3.446;2022-10-17T08:05:57;12.60;;;2.10;;
35048;SDS011;21236;48.740;-3.446;2022-10-17T08:08:23;24.42;;;3.72;;
35048;SDS011;21236;48.740;-3.446;2022-10-17T08:10:49;10.63;;;2.53;;
35048;SDS011;21236;48.740;-3.446;2022-10-17T08:13:15;9.00;;;2.55;;
35048;SDS011;21236;48.740;-3.446;2022-10-17T08:15:41;16.35;;;4.05;;
35048;SDS011;21236;48.740;-3.446;2022-10-17T08:18:07;12.90;;;4.80;;
35048;SDS011;21236;48.740;-3.446;2022-10-17T08:20:33;12.02;;;5.10;;
35048;SDS011;21236;48.740;-3.446;2022-10-17T08:23:00;16.83;;;4.90;;
35048;SDS011;21236;48.740;-3.446;2022-10-17T08:25:26;13.63;;;4.53;;
35048;SDS011;21236;48.740;-3.446;2022-10-17T08:27:52;11.88;;;4.93;;
35048;SDS011;21236;48.740;-3.446;2022-10-17T08:30:18;16.15;;;4.15;;
35048;SDS011;21236;48.740;-3.446;2022-10-17T08:32:44;11.10;;;3.03;;
35048;SDS011;21236;48.740;-3.446;2022-10-17T08:35:10;10.73;;;3.25;;
35048;SDS011;21236;48.740;-3.446;2022-10-17T08:37:36;13.52;;;3.33;;
35048;SDS011;21236;48.740;-3.446;2022-10-17T08:40:03;12.68;;;2.88;;
35048;SDS011;21236;48.740;-3.446;2022-10-17T08:47:53;9.13;;;2.08;;
35048;SDS011;21236;48.740;-3.446;2022-10-17T08:50:39;14.07;;;1.98;;
35048;SDS011;21236;48.740;-3.446;2022-10-17T08:55:52;16.88;;;1.92;;
35048;SDS011;21236;48.740;-3.446;2022-10-17T08:58:27;12.40;;;1.83;;
35048;SDS011;21236;48.740;-3.446;2022-10-17T09:01:05;12.70;;;2.78;;
35048;SDS011;21236;48.740;-3.446;2022-10-17T09:19:11;7.57;;;1.90;;
35048;SDS011;21236;48.740;-3.446;2022-10-17T09:21:45;13.68;;;1.90;;
35048;SDS011;21236;48.740;-3.446;2022-10-17T09:24:32;15.20;;;1.92;;
35048;SDS011;21236;48.740;-3.446;2022-10-17T09:27:01;14.70;;;1.98;;
35048;SDS011;21236;48.740;-3.446;2022-10-17T09:29:27;14.55;;;2.13;;
35048;SDS011;21236;48.740;-3.446;2022-10-17T09:31:59;8.25;;;2.30;;
35048;SDS011;21236;48.740;-3.446;2022-10-17T09:34:28;13.73;;;2.88;;
35048;SDS011;21236;48.740;-3.446;2022-10-17T09:36:54;8.45;;;1.90;;
35048;SDS011;21236;48.740;-3.446;2022-10-17T09:39:22;16.98;;;2.03;;
35048;SDS011;21236;48.740;-3.446;2022-10-17T09:41:54;15.07;;;2.35;;
35048;SDS011;21236;48.740;-3.446;2022-10-17T09:44:28;14.50;;;2.85;;
35048;SDS011;21236;48.740;-3.446;2022-10-17T09:49:40;11.77;;;1.88;;
35048;SDS011;21236;48.740;-3.446;2022-10-17T09:52:11;22.00;;;1.85;;
35048;SDS011;21236;48.740;-3.446;2022-10-17T09:54:46;11.93;;;2.08;;
35048;SDS011;21236;48.740;-3.446;2022-10-17T09:57:13;9.55;;;2.20;;
35048;SDS011;21236;48.740;-3.446;2022-10-17T09:59:45;13.75;;;2.03;;
35048;SDS011;21236;48.740;-3.446;2022-10-17T10:02:14;15.55;;;2.08;;
35048;SDS011;21236;48.740;-3.446;2022-10-17T10:04:50;9.60;;;2.20;;
35048;SDS011;21236;48.740;-3.446;2022-10-17T10:07:17;12.63;;;2.17;;
35048;SDS011;21236;48.740;-3.446;2022-10-17T10:09:45;16.70;;;2.33;;
35048;SDS011;21236;48.740;-3.446;2022-10-17T10:12:19;13.70;;;2.25;;
35048;SDS011;21236;48.740;-3.446;2022-10-17T10:14:45;20.63;;;4.05;;
35048;SDS011;21236;48.740;-3.446;2022-10-17T10:19:53;19.00;;;2.38;;
35048;SDS011;21236;48.740;-3.446;2022-10-17T10:22:20;12.45;;;2.75;;
35048;SDS011;21236;48.740;-3.446;2022-10-17T10:27:34;24.27;;;3.17;;
35048;SDS011;21236;48.740;-3.446;2022-10-17T10:30:00;14.40;;;2.40;;
35048;SDS011;21236;48.740;-3.446;2022-10-17T10:32:27;18.63;;;2.47;;
35048;SDS011;21236;48.740;-3.446;2022-10-17T10:37:24;22.02;;;2.20;;
35048;SDS011;21236;48.740;-3.446;2022-10-17T10:39:53;12.18;;;2.08;;
35048;SDS011;21236;48.740;-3.446;2022-10-17T10:42:21;15.55;;;2.75;;
35048;SDS011;21236;48.740;-3.446;2022-10-17T10:44:47;10.45;;;2.28;;
35048;SDS011;21236;48.740;-3.446;2022-10-17T10:47:15;12.32;;;2.15;;
35048;SDS011;21236;48.740;-3.446;2022-10-17T10:49:42;9.70;;;2.00;;
35048;SDS011;21236;48.740;-3.446;2022-10-17T10:52:11;17.65;;;2.47;;
35048;SDS011;21236;48.740;-3.446;2022-10-17T10:54:41;14.38;;;2.60;;
35048;SDS011;21236;48.740;-3.446;2022-10-17T10:57:09;12.73;;;2.42;;
35048;SDS011;21236;48.740;-3.446;2022-10-17T10:59:38;8.57;;;1.65;;
35048;SDS011;21236;48.740;-3.446;2022-10-17T11:02:10;19.48;;;1.95;;
35048;SDS011;21236;48.740;-3.446;2022-10-17T11:04:45;18.77;;;2.40;;
35048;SDS011;21236;48.740;-3.446;2022-10-17T11:12:16;17.25;;;2.47;;
35048;SDS011;21236;48.740;-3.446;2022-10-17T11:14:58;20.20;;;2.55;;
35048;SDS011;21236;48.740;-3.446;2022-10-17T11:18:09;25.75;;;3.47;;
35048;SDS011;21236;48.740;-3.446;2022-10-17T11:20:20;15.98;;;3.03;;
35048;SDS011;21236;48.740;-3.446;2022-10-17T11:22:48;20.52;;;3.28;;
35048;SDS011;21236;48.740;-3.446;2022-10-17T11:27:40;12.57;;;2.60;;
35048;SDS011;21236;48.740;-3.446;2022-10-17T11:30:08;16.13;;;2.55;;
35048;SDS011;21236;48.740;-3.446;2022-10-17T11:32:42;11.38;;;1.80;;
35048;SDS011;21236;48.740;-3.446;2022-10-17T11:37:37;12.80;;;2.78;;
35048;SDS011;21236;48.740;-3.446;2022-10-17T11:40:05;11.93;;;1.70;;
35048;SDS011;21236;48.740;-3.446;2022-10-17T11:42:34;12.60;;;1.85;;
35048;SDS011;21236;48.740;-3.446;2022-10-17T11:45:13;18.52;;;2.90;;
35048;SDS011;21236;48.740;-3.446;2022-10-17T11:47:44;17.77;;;1.90;;
35048;SDS011;21236;48.740;-3.446;2022-10-17T11:50:26;12.43;;;1.80;;
35048;SDS011;21236;48.740;-3.446;2022-10-17T11:52:56;13.23;;;2.20;;
35048;SDS011;21236;48.740;-3.446;2022-10-17T11:55:24;14.43;;;2.03;;
35048;SDS011;21236;48.740;-3.446;2022-10-17T12:03:05;11.07;;;1.85;;
35048;SDS011;21236;48.740;-3.446;2022-10-17T12:05:34;15.48;;;2.28;;
35048;SDS011;21236;48.740;-3.446;2022-10-17T12:10:30;23.88;;;2.83;;
35048;SDS011;21236;48.740;-3.446;2022-10-17T12:15:43;14.10;;;2.58;;
35048;SDS011;21236;48.740;-3.446;2022-10-17T12:18:14;13.98;;;2.38;;
35048;SDS011;21236;48.740;-3.446;2022-10-17T12:20:41;12.15;;;1.75;;
35048;SDS011;21236;48.740;-3.446;2022-10-17T12:25:36;15.45;;;1.63;;
35048;SDS011;21236;48.740;-3.446;2022-10-17T12:28:25;7.78;;;1.50;;
35048;SDS011;21236;48.740;-3.446;2022-10-17T12:30:56;16.98;;;1.73;;
35048;SDS011;21236;48.740;-3.446;2022-10-17T12:33:29;7.47;;;1.73;;
35048;SDS011;21236;48.740;-3.446;2022-10-17T12:38:22;17.42;;;2.50;;
35048;SDS011;21236;48.740;-3.446;2022-10-17T12:40:50;17.00;;;3.20;;
35048;SDS011;21236;48.740;-3.446;2022-10-17T12:46:03;11.45;;;2.10;;
35048;SDS011;21236;48.740;-3.446;2022-10-17T12:49:17;19.45;;;1.83;;
35048;SDS011;21236;48.740;-3.446;2022-10-17T12:56:07;8.23;;;1.42;;
35048;SDS011;21236;48.740;-3.446;2022-10-17T12:58:34;13.93;;;2.05;;
35048;SDS011;21236;48.740;-3.446;2022-10-17T13:01:00;9.27;;;1.70;;
35048;SDS011;21236;48.740;-3.446;2022-10-17T13:03:27;8.93;;;1.65;;
35048;SDS011;21236;48.740;-3.446;2022-10-17T13:05:56;13.32;;;2.42;;
35048;SDS011;21236;48.740;-3.446;2022-10-17T13:10:56;13.55;;;2.00;;
35048;SDS011;21236;48.740;-3.446;2022-10-17T13:15:49;14.82;;;2.45;;
35048;SDS011;21236;48.740;-3.446;2022-10-17T13:18:21;11.57;;;1.90;;
35048;SDS011;21236;48.740;-3.446;2022-10-17T13:20:54;11.13;;;1.90;;
35048;SDS011;21236;48.740;-3.446;2022-10-17T13:23:22;11.50;;;2.25;;
35048;SDS011;21236;48.740;-3.446;2022-10-17T13:26:00;13.20;;;1.73;;
35048;SDS011;21236;48.740;-3.446;2022-10-17T13:28:26;11.15;;;1.67;;
35048;SDS011;21236;48.740;-3.446;2022-10-17T13:30:53;11.10;;;2.05;;
35048;SDS011;21236;48.740;-3.446;2022-10-17T13:33:30;10.75;;;1.70;;
35048;SDS011;21236;48.740;-3.446;2022-10-17T13:35:58;13.23;;;2.05;;
35048;SDS011;21236;48.740;-3.446;2022-10-17T13:38:28;10.38;;;1.65;;
35048;SDS011;21236;48.740;-3.446;2022-10-17T13:40:56;15.57;;;2.17;;
35048;SDS011;21236;48.740;-3.446;2022-10-17T13:43:22;14.45;;;2.22;;
35048;SDS011;21236;48.740;-3.446;2022-10-17T13:45:50;8.98;;;1.75;;
35048;SDS011;21236;48.740;-3.446;2022-10-17T13:48:18;17.77;;;2.25;;
35048;SDS011;21236;48.740;-3.446;2022-10-17T13:50:46;6.75;;;1.50;;
35048;SDS011;21236;48.740;-3.446;2022-10-17T13:53:17;14.70;;;1.92;;
35048;SDS011;21236;48.740;-3.446;2022-10-17T13:55:54;7.22;;;2.00;;
35048;SDS011;21236;48.740;-3.446;2022-10-17T13:58:21;12.63;;;1.83;;
35048;SDS011;21236;48.740;-3.446;2022-10-17T14:00:47;12.95;;;3.38;;
35048;SDS011;21236;48.740;-3.446;2022-10-17T14:03:17;8.82;;;1.85;;
35048;SDS011;21236;48.740;-3.446;2022-10-17T14:06:00;11.43;;;1.70;;
35048;SDS011;21236;48.740;-3.446;2022-10-17T14:08:27;7.50;;;1.50;;
35048;SDS011;21236;48.740;-3.446;2022-10-17T14:10:54;11.77;;;2.03;;
35048;SDS011;21236;48.740;-3.446;2022-10-17T14:13:24;10.55;;;2.13;;
35048;SDS011;21236;48.740;-3.446;2022-10-17T14:15:51;15.55;;;2.17;;
35048;SDS011;21236;48.740;-3.446;2022-10-17T14:18:23;12.52;;;2.05;;
35048;SDS011;21236;48.740;-3.446;2022-10-17T14:20:50;8.00;;;1.83;;
35048;SDS011;21236;48.740;-3.446;2022-10-17T14:23:30;20.10;;;2.88;;
35048;SDS011;21236;48.740;-3.446;2022-10-17T14:26:07;11.20;;;1.90;;
35048;SDS011;21236;48.740;-3.446;2022-10-17T14:28:34;16.83;;;2.80;;
35048;SDS011;21236;48.740;-3.446;2022-10-17T14:31:10;9.57;;;1.63;;
35048;SDS011;21236;48.740;-3.446;2022-10-17T14:33:41;16.95;;;2.30;;
35048;SDS011;21236;48.740;-3.446;2022-10-17T14:36:08;10.32;;;1.90;;
35048;SDS011;21236;48.740;-3.446;2022-10-17T14:38:34;13.48;;;2.08;;
35048;SDS011;21236;48.740;-3.446;2022-10-17T14:41:02;21.23;;;1.85;;
35048;SDS011;21236;48.740;-3.446;2022-10-17T14:43:30;14.02;;;2.08;;
35048;SDS011;21236;48.740;-3.446;2022-10-17T14:45:58;19.90;;;3.30;;
35048;SDS011;21236;48.740;-3.446;2022-10-17T14:48:24;9.88;;;2.15;;
35048;SDS011;21236;48.740;-3.446;2022-10-17T14:51:33;18.35;;;2.42;;
35048;SDS011;21236;48.740;-3.446;2022-10-17T14:53:41;15.05;;;1.83;;
35048;SDS011;21236;48.740;-3.446;2022-10-17T14:56:21;6.55;;;1.70;;
35048;SDS011;21236;48.740;-3.446;2022-10-17T14:58:47;12.95;;;1.90;;
35048;SDS011;21236;48.740;-3.446;2022-10-17T15:01:14;7.18;;;1.50;;
35048;SDS011;21236;48.740;-3.446;2022-10-17T15:03:40;12.70;;;2.00;;
35048;SDS011;21236;48.740;-3.446;2022-10-17T15:06:19;10.02;;;2.08;;
35048;SDS011;21236;48.740;-3.446;2022-10-17T15:08:45;11.30;;;2.22;;
35048;SDS011;21236;48.740;-3.446;2022-10-17T15:11:11;11.85;;;1.67;;
35048;SDS011;21236;48.740;-3.446;2022-10-17T15:13:37;12.27;;;2.08;;
35048;SDS011;21236;48.740;-3.446;2022-10-17T15:16:26;12.35;;;2.13;;
35048;SDS011;21236;48.740;-3.446;2022-10-17T15:18:55;7.70;;;1.55;;
35048;SDS011;21236;48.740;-3.446;2022-10-17T15:21:23;9.68;;;2.22;;
35048;SDS011;21236;48.740;-3.446;2022-10-17T15:23:49;9.68;;;1.35;;
35048;SDS011;21236;48.740;-3.446;2022-10-17T15:28:45;10.75;;;1.80;;
35048;SDS011;21236;48.740;-3.446;2022-10-17T15:31:12;9.40;;;1.63;;
35048;SDS011;21236;48.740;-3.446;2022-10-17T15:33:39;7.47;;;1.92;;
35048;SDS011;21236;48.740;-3.446;2022-10-17T15:36:14;11.95;;;2.08;;
35048;SDS011;21236;48.740;-3.446;2022-10-17T15:38:41;8.55;;;1.25;;
35048;SDS011;21236;48.740;-3.446;2022-10-17T15:41:08;13.27;;;1.92;;
35048;SDS011;21236;48.740;-3.446;2022-10-17T15:43:35;7.90;;;1.77;;
35048;SDS011;21236;48.740;-3.446;2022-10-17T15:46:01;15.30;;;1.40;;
35048;SDS011;21236;48.740;-3.446;2022-10-17T15:48:28;9.57;;;1.88;;
35048;SDS011;21236;48.740;-3.446;2022-10-17T15:50:55;8.68;;;1.48;;
35048;SDS011;21236;48.740;-3.446;2022-10-17T15:53:22;8.10;;;1.65;;
35048;SDS011;21236;48.740;-3.446;2022-10-17T15:55:48;12.32;;;2.80;;
35048;SDS011;21236;48.740;-3.446;2022-10-17T15:58:15;10.75;;;1.88;;
35048;SDS011;21236;48.740;-3.446;2022-10-17T16:00:42;14.68;;;1.45;;
35048;SDS011;21236;48.740;-3.446;2022-10-17T16:03:08;7.18;;;1.70;;
35048;SDS011;21236;48.740;-3.446;2022-10-17T16:05:34;7.20;;;1.95;;
35048;SDS011;21236;48.740;-3.446;2022-10-17T16:08:00;8.07;;;1.73;;
35048;SDS011;21236;48.740;-3.446;2022-10-17T16:10:26;9.82;;;1.65;;
35048;SDS011;21236;48.740;-3.446;2022-10-17T16:12:53;10.68;;;1.42;;
35048;SDS011;21236;48.740;-3.446;2022-10-17T16:17:47;9.52;;;1.88;;
35048;SDS011;21236;48.740;-3.446;2022-10-17T16:20:13;8.20;;;1.60;;
35048;SDS011;21236;48.740;-3.446;2022-10-17T16:22:41;12.18;;;2.03;;
35048;SDS011;21236;48.740;-3.446;2022-10-17T16:25:14;10.95;;;1.58;;
35048;SDS011;21236;48.740;-3.446;2022-10-17T16:27:44;7.75;;;1.90;;
35048;SDS011;21236;48.740;-3.446;2022-10-17T16:30:10;10.98;;;1.75;;
35048;SDS011;21236;48.740;-3.446;2022-10-17T16:32:37;8.65;;;2.10;;
35048;SDS011;21236;48.740;-3.446;2022-10-17T16:35:03;6.00;;;1.15;;
35048;SDS011;21236;48.740;-3.446;2022-10-17T16:37:30;7.13;;;1.38;;
35048;SDS011;21236;48.740;-3.446;2022-10-17T16:39:56;11.05;;;1.77;;